Onil, Spain
Current Conditions -  °F | °C
As of 6:30 PM on Thursday 23 Oct 2014 (Local Time) from LEAL Reporting Station
Clear Clear  
Wind Chill: 73°   Ceiling: Unl
Heat Index: 73°   Visibility: 6mi
Dew Point: 63°   Wind: 9mph
Humidity: 69%   Direction: 180°S
Pressure: 30.03"   Gusts: NA
Location:  38.63°N, 0.67°W
Report Text: LEAL 231630Z 18008KT 160V220 CAVOK 23/17 Q1017 NOSIG
Loading
Personal Weather Stations






























Interactive Weather Map New forecast layout! Learn more

10-Day Weather Forecast

Advertisements
Track Severe Weather on mobile